sensor_id;sensor_type;location;lat;lon;timestamp;P1;durP1;ratioP1;P2;durP2;ratioP2
16634;SDS011;8431;52.458;9.998;2022-12-10T00:00:42;83.00;;;21.23;;
16634;SDS011;8431;52.458;9.998;2022-12-10T00:03:08;81.20;;;20.92;;
16634;SDS011;8431;52.458;9.998;2022-12-10T00:05:35;95.75;;;22.65;;
16634;SDS011;8431;52.458;9.998;2022-12-10T00:08:02;67.68;;;21.30;;
16634;SDS011;8431;52.458;9.998;2022-12-10T00:10:29;79.55;;;21.65;;
16634;SDS011;8431;52.458;9.998;2022-12-10T00:12:56;71.03;;;19.77;;
16634;SDS011;8431;52.458;9.998;2022-12-10T00:15:23;73.28;;;21.50;;
16634;SDS011;8431;52.458;9.998;2022-12-10T00:17:51;76.20;;;20.63;;
16634;SDS011;8431;52.458;9.998;2022-12-10T00:20:18;65.43;;;18.92;;
16634;SDS011;8431;52.458;9.998;2022-12-10T00:22:45;62.95;;;18.33;;
16634;SDS011;8431;52.458;9.998;2022-12-10T00:25:12;52.28;;;17.33;;
16634;SDS011;8431;52.458;9.998;2022-12-10T00:27:38;59.28;;;18.00;;
16634;SDS011;8431;52.458;9.998;2022-12-10T00:30:05;46.00;;;16.25;;
16634;SDS011;8431;52.458;9.998;2022-12-10T00:32:33;57.85;;;17.75;;
16634;SDS011;8431;52.458;9.998;2022-12-10T00:35:01;38.08;;;15.23;;
16634;SDS011;8431;52.458;9.998;2022-12-10T00:37:28;51.85;;;17.52;;
16634;SDS011;8431;52.458;9.998;2022-12-10T00:39:55;46.20;;;15.60;;
16634;SDS011;8431;52.458;9.998;2022-12-10T00:42:22;37.40;;;15.20;;
16634;SDS011;8431;52.458;9.998;2022-12-10T00:44:48;35.17;;;14.68;;
16634;SDS011;8431;52.458;9.998;2022-12-10T00:47:15;40.47;;;14.75;;
16634;SDS011;8431;52.458;9.998;2022-12-10T00:49:42;41.22;;;14.75;;
16634;SDS011;8431;52.458;9.998;2022-12-10T00:52:10;28.98;;;13.25;;
16634;SDS011;8431;52.458;9.998;2022-12-10T00:54:37;37.85;;;13.70;;
16634;SDS011;8431;52.458;9.998;2022-12-10T00:57:04;36.78;;;14.70;;
16634;SDS011;8431;52.458;9.998;2022-12-10T00:59:31;29.55;;;12.63;;
16634;SDS011;8431;52.458;9.998;2022-12-10T01:01:58;34.25;;;13.65;;
16634;SDS011;8431;52.458;9.998;2022-12-10T01:04:24;30.48;;;12.32;;
16634;SDS011;8431;52.458;9.998;2022-12-10T01:06:52;27.02;;;14.50;;
16634;SDS011;8431;52.458;9.998;2022-12-10T01:09:22;33.33;;;14.00;;
16634;SDS011;8431;52.458;9.998;2022-12-10T01:11:51;40.85;;;15.50;;
16634;SDS011;8431;52.458;9.998;2022-12-10T01:14:20;38.20;;;15.70;;
16634;SDS011;8431;52.458;9.998;2022-12-10T01:16:48;34.28;;;14.68;;
16634;SDS011;8431;52.458;9.998;2022-12-10T01:19:16;34.45;;;15.20;;
16634;SDS011;8431;52.458;9.998;2022-12-10T01:21:42;37.78;;;14.85;;
16634;SDS011;8431;52.458;9.998;2022-12-10T01:24:09;36.67;;;15.05;;
16634;SDS011;8431;52.458;9.998;2022-12-10T01:26:38;32.65;;;15.13;;
16634;SDS011;8431;52.458;9.998;2022-12-10T01:29:05;32.35;;;14.60;;
16634;SDS011;8431;52.458;9.998;2022-12-10T01:31:32;28.38;;;15.38;;
16634;SDS011;8431;52.458;9.998;2022-12-10T01:34:01;38.88;;;16.23;;
16634;SDS011;8431;52.458;9.998;2022-12-10T01:36:31;43.70;;;16.00;;
16634;SDS011;8431;52.458;9.998;2022-12-10T01:38:59;35.38;;;16.25;;
16634;SDS011;8431;52.458;9.998;2022-12-10T01:41:27;32.28;;;15.13;;
16634;SDS011;8431;52.458;9.998;2022-12-10T01:43:58;31.60;;;14.25;;
16634;SDS011;8431;52.458;9.998;2022-12-10T01:46:27;36.50;;;15.27;;
16634;SDS011;8431;52.458;9.998;2022-12-10T01:48:55;36.85;;;15.43;;
16634;SDS011;8431;52.458;9.998;2022-12-10T01:51:23;28.73;;;14.18;;
16634;SDS011;8431;52.458;9.998;2022-12-10T01:53:52;32.70;;;14.55;;
16634;SDS011;8431;52.458;9.998;2022-12-10T01:56:20;28.45;;;14.55;;
16634;SDS011;8431;52.458;9.998;2022-12-10T01:58:48;30.83;;;14.20;;
16634;SDS011;8431;52.458;9.998;2022-12-10T13:35:22;17.70;;;10.52;;
16634;SDS011;8431;52.458;9.998;2022-12-10T13:38:20;20.30;;;12.27;;
16634;SDS011;8431;52.458;9.998;2022-12-10T13:41:08;17.85;;;11.23;;
16634;SDS011;8431;52.458;9.998;2022-12-10T13:43:53;21.77;;;13.00;;
16634;SDS011;8431;52.458;9.998;2022-12-10T13:46:53;21.70;;;12.52;;
16634;SDS011;8431;52.458;9.998;2022-12-10T13:49:23;19.77;;;12.55;;
16634;SDS011;8431;52.458;9.998;2022-12-10T13:51:58;17.48;;;11.80;;
16634;SDS011;8431;52.458;9.998;2022-12-10T13:57:38;23.52;;;12.32;;
16634;SDS011;8431;52.458;9.998;2022-12-10T14:00:18;21.88;;;13.93;;
16634;SDS011;8431;52.458;9.998;2022-12-10T14:02:54;23.10;;;13.48;;
16634;SDS011;8431;52.458;9.998;2022-12-10T14:05:34;19.98;;;12.82;;
16634;SDS011;8431;52.458;9.998;2022-12-10T14:08:31;19.67;;;12.18;;
16634;SDS011;8431;52.458;9.998;2022-12-10T14:11:20;22.23;;;12.30;;
16634;SDS011;8431;52.458;9.998;2022-12-10T14:14:10;23.05;;;12.68;;
16634;SDS011;8431;52.458;9.998;2022-12-10T14:17:02;22.95;;;12.68;;
16634;SDS011;8431;52.458;9.998;2022-12-10T14:19:53;23.63;;;13.20;;
16634;SDS011;8431;52.458;9.998;2022-12-10T14:22:43;21.42;;;12.90;;
16634;SDS011;8431;52.458;9.998;2022-12-10T14:25:34;21.92;;;12.82;;
16634;SDS011;8431;52.458;9.998;2022-12-10T14:28:29;24.55;;;12.50;;
16634;SDS011;8431;52.458;9.998;2022-12-10T14:31:19;18.65;;;11.77;;
16634;SDS011;8431;52.458;9.998;2022-12-10T14:34:11;19.45;;;11.80;;
16634;SDS011;8431;52.458;9.998;2022-12-10T14:37:01;19.40;;;12.00;;
16634;SDS011;8431;52.458;9.998;2022-12-10T14:39:51;20.45;;;11.45;;
16634;SDS011;8431;52.458;9.998;2022-12-10T14:42:40;19.17;;;11.77;;
16634;SDS011;8431;52.458;9.998;2022-12-10T14:45:27;23.55;;;12.85;;
16634;SDS011;8431;52.458;9.998;2022-12-10T14:48:24;24.95;;;13.10;;
16634;SDS011;8431;52.458;9.998;2022-12-10T14:51:13;24.02;;;13.57;;
16634;SDS011;8431;52.458;9.998;2022-12-10T14:54:02;23.38;;;12.40;;
16634;SDS011;8431;52.458;9.998;2022-12-10T14:56:49;21.27;;;11.93;;
16634;SDS011;8431;52.458;9.998;2022-12-10T14:59:40;21.98;;;13.05;;
16634;SDS011;8431;52.458;9.998;2022-12-10T15:02:31;21.15;;;11.57;;
16634;SDS011;8431;52.458;9.998;2022-12-10T15:05:24;22.25;;;13.23;;
16634;SDS011;8431;52.458;9.998;2022-12-10T15:08:13;18.95;;;11.73;;
16634;SDS011;8431;52.458;9.998;2022-12-10T15:11:02;22.52;;;13.45;;
16634;SDS011;8431;52.458;9.998;2022-12-10T15:13:51;24.38;;;13.52;;
16634;SDS011;8431;52.458;9.998;2022-12-10T15:16:42;28.42;;;12.90;;
16634;SDS011;8431;52.458;9.998;2022-12-10T15:19:32;23.17;;;13.02;;
16634;SDS011;8431;52.458;9.998;2022-12-10T15:22:21;23.02;;;12.82;;
16634;SDS011;8431;52.458;9.998;2022-12-10T15:25:19;26.88;;;13.50;;
16634;SDS011;8431;52.458;9.998;2022-12-10T15:28:20;23.73;;;11.90;;
16634;SDS011;8431;52.458;9.998;2022-12-10T15:31:10;25.05;;;12.75;;
16634;SDS011;8431;52.458;9.998;2022-12-10T15:34:01;19.77;;;11.88;;
16634;SDS011;8431;52.458;9.998;2022-12-10T15:36:54;21.40;;;11.88;;
16634;SDS011;8431;52.458;9.998;2022-12-10T15:39:44;21.13;;;12.57;;
16634;SDS011;8431;52.458;9.998;2022-12-10T15:42:37;22.30;;;13.48;;
16634;SDS011;8431;52.458;9.998;2022-12-10T15:45:26;23.52;;;13.27;;
16634;SDS011;8431;52.458;9.998;2022-12-10T15:48:23;23.42;;;13.00;;
16634;SDS011;8431;52.458;9.998;2022-12-10T15:51:15;26.75;;;13.68;;
16634;SDS011;8431;52.458;9.998;2022-12-10T15:54:12;25.77;;;14.15;;
16634;SDS011;8431;52.458;9.998;2022-12-10T15:57:10;24.15;;;13.70;;
16634;SDS011;8431;52.458;9.998;2022-12-10T16:00:00;20.75;;;11.88;;
16634;SDS011;8431;52.458;9.998;2022-12-10T16:02:49;22.92;;;13.10;;
16634;SDS011;8431;52.458;9.998;2022-12-10T16:05:39;24.42;;;13.23;;
16634;SDS011;8431;52.458;9.998;2022-12-10T16:08:29;25.50;;;13.63;;
16634;SDS011;8431;52.458;9.998;2022-12-10T16:11:23;26.63;;;13.40;;
16634;SDS011;8431;52.458;9.998;2022-12-10T16:14:10;22.02;;;13.02;;
16634;SDS011;8431;52.458;9.998;2022-12-10T16:16:58;24.10;;;15.05;;
16634;SDS011;8431;52.458;9.998;2022-12-10T16:19:45;25.15;;;13.77;;
16634;SDS011;8431;52.458;9.998;2022-12-10T16:22:32;26.35;;;14.20;;
16634;SDS011;8431;52.458;9.998;2022-12-10T16:25:21;26.25;;;15.82;;
16634;SDS011;8431;52.458;9.998;2022-12-10T16:28:10;28.52;;;15.43;;
16634;SDS011;8431;52.458;9.998;2022-12-10T16:30:59;24.35;;;14.88;;
16634;SDS011;8431;52.458;9.998;2022-12-10T16:33:46;26.88;;;14.00;;
16634;SDS011;8431;52.458;9.998;2022-12-10T16:36:37;24.60;;;14.25;;
16634;SDS011;8431;52.458;9.998;2022-12-10T16:39:24;22.27;;;14.07;;
16634;SDS011;8431;52.458;9.998;2022-12-10T16:42:12;20.08;;;12.50;;
16634;SDS011;8431;52.458;9.998;2022-12-10T16:44:59;24.08;;;13.98;;
16634;SDS011;8431;52.458;9.998;2022-12-10T16:47:47;23.05;;;13.85;;
16634;SDS011;8431;52.458;9.998;2022-12-10T16:50:34;25.45;;;16.15;;
16634;SDS011;8431;52.458;9.998;2022-12-10T16:53:23;32.22;;;18.90;;
16634;SDS011;8431;52.458;9.998;2022-12-10T16:56:12;28.70;;;18.17;;
16634;SDS011;8431;52.458;9.998;2022-12-10T16:59:02;29.65;;;18.48;;
16634;SDS011;8431;52.458;9.998;2022-12-10T17:01:49;24.50;;;14.50;;
16634;SDS011;8431;52.458;9.998;2022-12-10T17:04:36;27.80;;;15.32;;
16634;SDS011;8431;52.458;9.998;2022-12-10T17:07:23;24.30;;;14.65;;
16634;SDS011;8431;52.458;9.998;2022-12-10T17:10:11;24.38;;;13.82;;
16634;SDS011;8431;52.458;9.998;2022-12-10T17:12:58;24.20;;;14.40;;
16634;SDS011;8431;52.458;9.998;2022-12-10T17:15:47;24.40;;;14.23;;
16634;SDS011;8431;52.458;9.998;2022-12-10T17:18:34;23.75;;;14.25;;
16634;SDS011;8431;52.458;9.998;2022-12-10T17:21:21;26.02;;;14.05;;
16634;SDS011;8431;52.458;9.998;2022-12-10T17:24:09;26.02;;;15.13;;
16634;SDS011;8431;52.458;9.998;2022-12-10T17:26:57;23.13;;;13.27;;
16634;SDS011;8431;52.458;9.998;2022-12-10T17:29:48;21.98;;;13.48;;
16634;SDS011;8431;52.458;9.998;2022-12-10T17:32:40;22.75;;;13.48;;
16634;SDS011;8431;52.458;9.998;2022-12-10T17:35:27;21.30;;;13.15;;
16634;SDS011;8431;52.458;9.998;2022-12-10T17:38:14;21.23;;;13.27;;
16634;SDS011;8431;52.458;9.998;2022-12-10T17:41:03;21.83;;;13.77;;
16634;SDS011;8431;52.458;9.998;2022-12-10T17:43:51;22.70;;;14.23;;
16634;SDS011;8431;52.458;9.998;2022-12-10T17:46:38;20.40;;;13.35;;
16634;SDS011;8431;52.458;9.998;2022-12-10T17:49:27;20.35;;;12.55;;
16634;SDS011;8431;52.458;9.998;2022-12-10T17:52:14;21.73;;;13.73;;
16634;SDS011;8431;52.458;9.998;2022-12-10T17:55:01;19.40;;;13.25;;
16634;SDS011;8431;52.458;9.998;2022-12-10T17:57:48;22.70;;;13.23;;
16634;SDS011;8431;52.458;9.998;2022-12-10T18:00:36;20.45;;;13.40;;
16634;SDS011;8431;52.458;9.998;2022-12-10T18:03:23;20.80;;;13.48;;
16634;SDS011;8431;52.458;9.998;2022-12-10T18:06:14;20.77;;;12.90;;
16634;SDS011;8431;52.458;9.998;2022-12-10T18:09:05;18.95;;;12.82;;
16634;SDS011;8431;52.458;9.998;2022-12-10T18:11:56;20.48;;;13.23;;
16634;SDS011;8431;52.458;9.998;2022-12-10T18:14:43;21.98;;;12.85;;
16634;SDS011;8431;52.458;9.998;2022-12-10T18:17:30;18.88;;;12.68;;
16634;SDS011;8431;52.458;9.998;2022-12-10T18:20:20;19.67;;;13.07;;
16634;SDS011;8431;52.458;9.998;2022-12-10T18:23:10;21.58;;;13.13;;
16634;SDS011;8431;52.458;9.998;2022-12-10T18:25:58;19.63;;;13.32;;
16634;SDS011;8431;52.458;9.998;2022-12-10T18:28:47;18.35;;;12.50;;
16634;SDS011;8431;52.458;9.998;2022-12-10T18:31:36;19.33;;;12.52;;
16634;SDS011;8431;52.458;9.998;2022-12-10T18:34:23;19.27;;;12.90;;
16634;SDS011;8431;52.458;9.998;2022-12-10T18:37:10;19.40;;;12.00;;
16634;SDS011;8431;52.458;9.998;2022-12-10T18:39:59;17.00;;;12.20;;
16634;SDS011;8431;52.458;9.998;2022-12-10T18:42:46;19.60;;;13.07;;
16634;SDS011;8431;52.458;9.998;2022-12-10T18:45:35;19.90;;;13.13;;
16634;SDS011;8431;52.458;9.998;2022-12-10T18:48:23;20.38;;;14.00;;
16634;SDS011;8431;52.458;9.998;2022-12-10T18:51:11;20.60;;;13.95;;
16634;SDS011;8431;52.458;9.998;2022-12-10T18:53:59;22.38;;;14.32;;
16634;SDS011;8431;52.458;9.998;2022-12-10T18:56:48;21.60;;;14.10;;
16634;SDS011;8431;52.458;9.998;2022-12-10T18:59:35;20.10;;;13.32;;
16634;SDS011;8431;52.458;9.998;2022-12-10T19:02:22;18.33;;;13.10;;
16634;SDS011;8431;52.458;9.998;2022-12-10T19:05:09;19.98;;;13.45;;
16634;SDS011;8431;52.458;9.998;2022-12-10T19:07:57;20.92;;;14.48;;
16634;SDS011;8431;52.458;9.998;2022-12-10T19:10:44;22.05;;;13.90;;
16634;SDS011;8431;52.458;9.998;2022-12-10T19:13:32;19.65;;;13.52;;
16634;SDS011;8431;52.458;9.998;2022-12-10T19:16:20;20.65;;;13.88;;
16634;SDS011;8431;52.458;9.998;2022-12-10T19:19:09;20.15;;;13.10;;
16634;SDS011;8431;52.458;9.998;2022-12-10T19:21:57;20.90;;;14.48;;
16634;SDS011;8431;52.458;9.998;2022-12-10T19:24:44;19.63;;;12.77;;
16634;SDS011;8431;52.458;9.998;2022-12-10T19:27:31;21.17;;;14.80;;
16634;SDS011;8431;52.458;9.998;2022-12-10T19:30:21;19.73;;;13.60;;
16634;SDS011;8431;52.458;9.998;2022-12-10T19:33:10;21.05;;;13.10;;
16634;SDS011;8431;52.458;9.998;2022-12-10T19:35:57;18.27;;;13.10;;
16634;SDS011;8431;52.458;9.998;2022-12-10T19:38:44;19.00;;;12.57;;
16634;SDS011;8431;52.458;9.998;2022-12-10T19:41:32;19.48;;;12.32;;
16634;SDS011;8431;52.458;9.998;2022-12-10T19:44:19;21.70;;;14.10;;
16634;SDS011;8431;52.458;9.998;2022-12-10T19:47:09;19.33;;;13.23;;
16634;SDS011;8431;52.458;9.998;2022-12-10T19:50:02;17.02;;;11.52;;
16634;SDS011;8431;52.458;9.998;2022-12-10T19:52:49;17.38;;;11.77;;
16634;SDS011;8431;52.458;9.998;2022-12-10T19:55:36;17.40;;;12.70;;
16634;SDS011;8431;52.458;9.998;2022-12-10T19:58:23;16.40;;;12.90;;
16634;SDS011;8431;52.458;9.998;2022-12-10T20:01:11;19.70;;;13.15;;
16634;SDS011;8431;52.458;9.998;2022-12-10T20:03:59;18.50;;;12.55;;
16634;SDS011;8431;52.458;9.998;2022-12-10T20:06:47;20.63;;;13.35;;
16634;SDS011;8431;52.458;9.998;2022-12-10T20:09:35;19.70;;;13.15;;
16634;SDS011;8431;52.458;9.998;2022-12-10T20:12:22;18.60;;;12.73;;
16634;SDS011;8431;52.458;9.998;2022-12-10T20:15:09;20.33;;;13.55;;
16634;SDS011;8431;52.458;9.998;2022-12-10T20:17:56;16.70;;;11.45;;
16634;SDS011;8431;52.458;9.998;2022-12-10T20:20:45;17.83;;;11.20;;
16634;SDS011;8431;52.458;9.998;2022-12-10T20:23:32;16.38;;;11.98;;
16634;SDS011;8431;52.458;9.998;2022-12-10T20:26:20;18.38;;;12.35;;
16634;SDS011;8431;52.458;9.998;2022-12-10T20:29:11;18.20;;;12.40;;
16634;SDS011;8431;52.458;9.998;2022-12-10T20:31:59;17.73;;;12.40;;
16634;SDS011;8431;52.458;9.998;2022-12-10T20:34:48;18.52;;;12.70;;
16634;SDS011;8431;52.458;9.998;2022-12-10T20:37:37;17.30;;;12.30;;
16634;SDS011;8431;52.458;9.998;2022-12-10T20:40:24;18.35;;;12.50;;
16634;SDS011;8431;52.458;9.998;2022-12-10T20:43:11;18.30;;;12.55;;
16634;SDS011;8431;52.458;9.998;2022-12-10T20:46:00;18.55;;;13.07;;
16634;SDS011;8431;52.458;9.998;2022-12-10T20:48:48;17.88;;;12.68;;
16634;SDS011;8431;52.458;9.998;2022-12-10T20:51:36;18.05;;;12.60;;
16634;SDS011;8431;52.458;9.998;2022-12-10T20:54:24;20.60;;;14.20;;
16634;SDS011;8431;52.458;9.998;2022-12-10T20:57:11;19.75;;;12.95;;
16634;SDS011;8431;52.458;9.998;2022-12-10T20:59:58;17.55;;;12.63;;
16634;SDS011;8431;52.458;9.998;2022-12-10T21:02:46;18.20;;;12.65;;
16634;SDS011;8431;52.458;9.998;2022-12-10T21:05:33;20.52;;;13.23;;
16634;SDS011;8431;52.458;9.998;2022-12-10T21:08:20;21.02;;;13.57;;
16634;SDS011;8431;52.458;9.998;2022-12-10T21:11:09;19.13;;;12.90;;
16634;SDS011;8431;52.458;9.998;2022-12-10T21:13:56;18.08;;;12.88;;
16634;SDS011;8431;52.458;9.998;2022-12-10T21:16:43;19.77;;;13.57;;
16634;SDS011;8431;52.458;9.998;2022-12-10T21:19:30;17.50;;;13.00;;
16634;SDS011;8431;52.458;9.998;2022-12-10T21:22:17;18.00;;;12.63;;
16634;SDS011;8431;52.458;9.998;2022-12-10T21:25:04;15.88;;;11.65;;
16634;SDS011;8431;52.458;9.998;2022-12-10T21:27:53;15.90;;;12.73;;
16634;SDS011;8431;52.458;9.998;2022-12-10T21:30:40;16.92;;;11.70;;
16634;SDS011;8431;52.458;9.998;2022-12-10T21:33:28;15.65;;;11.48;;
16634;SDS011;8431;52.458;9.998;2022-12-10T21:36:16;16.27;;;11.68;;
16634;SDS011;8431;52.458;9.998;2022-12-10T21:39:05;15.52;;;11.32;;
16634;SDS011;8431;52.458;9.998;2022-12-10T21:41:52;17.52;;;12.93;;
16634;SDS011;8431;52.458;9.998;2022-12-10T21:44:58;22.67;;;13.10;;
16634;SDS011;8431;52.458;9.998;2022-12-10T21:47:45;20.20;;;13.30;;
16634;SDS011;8431;52.458;9.998;2022-12-10T21:50:32;17.08;;;12.52;;
16634;SDS011;8431;52.458;9.998;2022-12-10T21:53:20;18.27;;;12.63;;
16634;SDS011;8431;52.458;9.998;2022-12-10T21:56:07;19.80;;;13.68;;
16634;SDS011;8431;52.458;9.998;2022-12-10T21:58:55;20.65;;;14.00;;
16634;SDS011;8431;52.458;9.998;2022-12-10T22:01:43;22.27;;;14.30;;
16634;SDS011;8431;52.458;9.998;2022-12-10T22:04:30;21.15;;;14.75;;
16634;SDS011;8431;52.458;9.998;2022-12-10T22:07:18;20.92;;;14.52;;
16634;SDS011;8431;52.458;9.998;2022-12-10T22:10:05;22.48;;;16.10;;
16634;SDS011;8431;52.458;9.998;2022-12-10T22:12:54;21.20;;;14.57;;
16634;SDS011;8431;52.458;9.998;2022-12-10T22:15:42;22.63;;;14.13;;
16634;SDS011;8431;52.458;9.998;2022-12-10T22:18:30;18.23;;;13.27;;
16634;SDS011;8431;52.458;9.998;2022-12-10T22:21:18;19.00;;;14.02;;
16634;SDS011;8431;52.458;9.998;2022-12-10T22:24:07;19.63;;;14.07;;
16634;SDS011;8431;52.458;9.998;2022-12-10T22:26:54;18.90;;;13.27;;
16634;SDS011;8431;52.458;9.998;2022-12-10T22:29:42;19.90;;;13.20;;
16634;SDS011;8431;52.458;9.998;2022-12-10T22:32:29;19.90;;;14.80;;
16634;SDS011;8431;52.458;9.998;2022-12-10T22:35:18;20.23;;;14.27;;
16634;SDS011;8431;52.458;9.998;2022-12-10T22:38:05;21.38;;;15.02;;
16634;SDS011;8431;52.458;9.998;2022-12-10T22:40:52;21.63;;;14.65;;
16634;SDS011;8431;52.458;9.998;2022-12-10T22:43:40;18.70;;;13.38;;
16634;SDS011;8431;52.458;9.998;2022-12-10T22:46:27;16.83;;;12.68;;
16634;SDS011;8431;52.458;9.998;2022-12-10T22:49:14;20.77;;;14.27;;
16634;SDS011;8431;52.458;9.998;2022-12-10T22:52:03;17.17;;;12.95;;
16634;SDS011;8431;52.458;9.998;2022-12-10T22:54:50;17.80;;;13.27;;
16634;SDS011;8431;52.458;9.998;2022-12-10T22:57:37;19.58;;;13.45;;
16634;SDS011;8431;52.458;9.998;2022-12-10T23:00:27;18.08;;;13.18;;
16634;SDS011;8431;52.458;9.998;2022-12-10T23:03:15;17.85;;;13.25;;
16634;SDS011;8431;52.458;9.998;2022-12-10T23:06:02;19.15;;;12.63;;
16634;SDS011;8431;52.458;9.998;2022-12-10T23:08:50;18.67;;;13.73;;
16634;SDS011;8431;52.458;9.998;2022-12-10T23:11:37;19.90;;;13.00;;
16634;SDS011;8431;52.458;9.998;2022-12-10T23:14:44;20.90;;;13.70;;
16634;SDS011;8431;52.458;9.998;2022-12-10T23:17:32;18.05;;;13.00;;
16634;SDS011;8431;52.458;9.998;2022-12-10T23:20:19;18.55;;;13.02;;
16634;SDS011;8431;52.458;9.998;2022-12-10T23:23:08;18.13;;;12.90;;
16634;SDS011;8431;52.458;9.998;2022-12-10T23:26:00;19.52;;;14.40;;
16634;SDS011;8431;52.458;9.998;2022-12-10T23:28:47;18.90;;;14.02;;
16634;SDS011;8431;52.458;9.998;2022-12-10T23:31:35;20.88;;;13.57;;
16634;SDS011;8431;52.458;9.998;2022-12-10T23:34:22;21.73;;;14.07;;
16634;SDS011;8431;52.458;9.998;2022-12-10T23:37:09;18.85;;;13.43;;
16634;SDS011;8431;52.458;9.998;2022-12-10T23:39:56;20.35;;;13.65;;
16634;SDS011;8431;52.458;9.998;2022-12-10T23:42:45;20.45;;;13.52;;
16634;SDS011;8431;52.458;9.998;2022-12-10T23:45:32;19.80;;;13.85;;
16634;SDS011;8431;52.458;9.998;2022-12-10T23:48:19;19.55;;;13.50;;
16634;SDS011;8431;52.458;9.998;2022-12-10T23:51:06;20.40;;;13.95;;
16634;SDS011;8431;52.458;9.998;2022-12-10T23:53:54;20.35;;;13.43;;
16634;SDS011;8431;52.458;9.998;2022-12-10T23:56:41;19.98;;;13.50;;
16634;SDS011;8431;52.458;9.998;2022-12-10T23:59:30;19.20;;;13.90;;
